Clayton, LA (71326)

5:39 PM CDT on July 27, 2016 (GMT -0500)
Downtown, | | Change Station

Elev 236 ft 31.56 °N, 91.40 °W | Updated 10 seconds ago

Mostly Cloudy
Mostly Cloudy
77.7 °F
Feels Like 80 °F
N
0.2
Wind Variable Wind from SSW
Gusts 2.5 mph

Today
High -- | Low -- °F
--% Chance of Precip.
Yesterday
High -- | Low -- °F
Precip. -- in
Pressure 29.98 in
Visibility 10.0 miles
Clouds Mostly Cloudy 1000 ft
Mostly Cloudy 10000 ft
Heat Index 80 °F
Dew Point 78 °F
Humidity 99%
Rainfall 1.49 in
Snow Depth Not available.
6:18 AM 8:05 PM
Last Quarter, 39% visible
METAR KHEZ 272235Z AUTO 21003KT 10SM BKN010 BKN100 25/23 A2998 RMK AO1
Pressure 29.98 in
Visibility 10.0 miles
Clouds Mostly Cloudy 1000 ft
Mostly Cloudy 10000 ft
Heat Index 80 °F
Dew Point 78 °F
Humidity 99%
Rainfall 1.49 in
Snow Depth Not available.
6:18 AM 8:05 PM
Last Quarter, 39% visible
METAR KHEZ 272235Z AUTO 21003KT 10SM BKN010 BKN100 25/23 A2998 RMK AO1

10-Day Weather Forecast

Almanac

Astronomy

Jul. 27, 2016 Rise Set
Actual Time
Civil Twilight
Nautical Twilight
Astronomical Twilight
Moon
Length of Visible Light
Length of Day
Tomorrow will be .
, % of the Moon is Illuminated

Today's Extremes

State Highs State Lows

Community

WunderPhotos

Upload Photos

1,927,951 photos uploaded!

WunderBlog® & News

Nearby

Air Quality

  Air Quality AQ Index Pollutant
Not available.

Snow Depth

Station Depth Elevation

Earthquake Activity

City Distance Mag. Time & Date
Minimum magnitude displayed is 2.5.

Coastal Water Temperatures

Place Temperature

Stations

Nearby Weather Stations

Station Location Temp. Windchill Dew Point Humidity Wind Precip. Elev Updated Type
                   

Watches & Warnings

There are currently no watches in effect.